sensor_id;sensor_type;location;lat;lon;timestamp;P1;durP1;ratioP1;P2;durP2;ratioP2
22439;SDS011;11387;51.612;7.210;2023-07-31T00:00:16;2.72;;;1.88;;
22439;SDS011;11387;51.612;7.210;2023-07-31T00:02:45;3.10;;;1.60;;
22439;SDS011;11387;51.612;7.210;2023-07-31T00:05:14;3.95;;;1.83;;
22439;SDS011;11387;51.612;7.210;2023-07-31T00:07:43;3.97;;;2.17;;
22439;SDS011;11387;51.612;7.210;2023-07-31T00:10:12;4.43;;;2.45;;
22439;SDS011;11387;51.612;7.210;2023-07-31T00:12:42;4.68;;;2.80;;
22439;SDS011;11387;51.612;7.210;2023-07-31T00:15:13;4.95;;;3.13;;
22439;SDS011;11387;51.612;7.210;2023-07-31T00:17:43;5.03;;;2.70;;
22439;SDS011;11387;51.612;7.210;2023-07-31T00:20:12;5.53;;;3.25;;
22439;SDS011;11387;51.612;7.210;2023-07-31T00:22:41;6.60;;;3.97;;
22439;SDS011;11387;51.612;7.210;2023-07-31T00:25:09;6.22;;;3.80;;
22439;SDS011;11387;51.612;7.210;2023-07-31T00:27:38;7.78;;;3.90;;
22439;SDS011;11387;51.612;7.210;2023-07-31T00:30:12;7.50;;;3.88;;
22439;SDS011;11387;51.612;7.210;2023-07-31T00:32:40;5.97;;;3.83;;
22439;SDS011;11387;51.612;7.210;2023-07-31T00:35:10;9.00;;;4.22;;
22439;SDS011;11387;51.612;7.210;2023-07-31T00:37:39;9.32;;;4.65;;
22439;SDS011;11387;51.612;7.210;2023-07-31T00:40:08;7.45;;;4.22;;
22439;SDS011;11387;51.612;7.210;2023-07-31T00:42:37;9.30;;;4.85;;
22439;SDS011;11387;51.612;7.210;2023-07-31T00:45:06;11.63;;;6.53;;
22439;SDS011;11387;51.612;7.210;2023-07-31T00:47:35;15.98;;;6.78;;
22439;SDS011;11387;51.612;7.210;2023-07-31T00:50:04;13.35;;;7.72;;
22439;SDS011;11387;51.612;7.210;2023-07-31T00:52:35;19.20;;;8.73;;
22439;SDS011;11387;51.612;7.210;2023-07-31T00:55:06;15.77;;;7.57;;
22439;SDS011;11387;51.612;7.210;2023-07-31T00:57:35;13.32;;;7.60;;
22439;SDS011;11387;51.612;7.210;2023-07-31T01:00:06;21.73;;;9.13;;
22439;SDS011;11387;51.612;7.210;2023-07-31T01:02:36;25.88;;;9.68;;
22439;SDS011;11387;51.612;7.210;2023-07-31T01:05:06;26.75;;;10.75;;
22439;SDS011;11387;51.612;7.210;2023-07-31T01:07:38;28.15;;;10.85;;
22439;SDS011;11387;51.612;7.210;2023-07-31T01:10:14;23.27;;;10.05;;
22439;SDS011;11387;51.612;7.210;2023-07-31T01:12:46;24.63;;;11.18;;
22439;SDS011;11387;51.612;7.210;2023-07-31T01:15:16;30.80;;;12.02;;
22439;SDS011;11387;51.612;7.210;2023-07-31T01:17:46;24.63;;;10.50;;
22439;SDS011;11387;51.612;7.210;2023-07-31T01:20:17;36.17;;;12.15;;
22439;SDS011;11387;51.612;7.210;2023-07-31T01:23:01;30.98;;;11.77;;
22439;SDS011;11387;51.612;7.210;2023-07-31T01:25:53;28.48;;;10.07;;
22439;SDS011;11387;51.612;7.210;2023-07-31T01:28:29;33.83;;;10.13;;
22439;SDS011;11387;51.612;7.210;2023-07-31T01:31:07;22.63;;;9.25;;
22439;SDS011;11387;51.612;7.210;2023-07-31T01:33:40;31.10;;;10.13;;
22439;SDS011;11387;51.612;7.210;2023-07-31T01:36:09;20.70;;;8.48;;
22439;SDS011;11387;51.612;7.210;2023-07-31T01:38:47;25.17;;;10.27;;
22439;SDS011;11387;51.612;7.210;2023-07-31T01:41:17;29.50;;;9.63;;
22439;SDS011;11387;51.612;7.210;2023-07-31T01:43:46;28.73;;;9.57;;
22439;SDS011;11387;51.612;7.210;2023-07-31T01:46:15;27.35;;;10.40;;
22439;SDS011;11387;51.612;7.210;2023-07-31T01:48:44;27.60;;;9.93;;
22439;SDS011;11387;51.612;7.210;2023-07-31T01:51:12;29.40;;;9.27;;
22439;SDS011;11387;51.612;7.210;2023-07-31T01:53:41;26.63;;;9.00;;
22439;SDS011;11387;51.612;7.210;2023-07-31T01:56:10;24.92;;;8.55;;
22439;SDS011;11387;51.612;7.210;2023-07-31T01:58:41;25.60;;;8.02;;
22439;SDS011;11387;51.612;7.210;2023-07-31T02:01:10;28.50;;;8.75;;
22439;SDS011;11387;51.612;7.210;2023-07-31T02:03:39;27.75;;;9.05;;
22439;SDS011;11387;51.612;7.210;2023-07-31T02:06:09;23.50;;;8.50;;
22439;SDS011;11387;51.612;7.210;2023-07-31T02:08:38;29.55;;;7.70;;
22439;SDS011;11387;51.612;7.210;2023-07-31T02:11:06;29.23;;;7.80;;
22439;SDS011;11387;51.612;7.210;2023-07-31T02:13:35;30.38;;;8.80;;
22439;SDS011;11387;51.612;7.210;2023-07-31T02:16:05;27.20;;;8.75;;
22439;SDS011;11387;51.612;7.210;2023-07-31T02:18:34;18.20;;;7.15;;
22439;SDS011;11387;51.612;7.210;2023-07-31T02:21:02;29.40;;;7.88;;
22439;SDS011;11387;51.612;7.210;2023-07-31T02:23:31;24.90;;;8.10;;
22439;SDS011;11387;51.612;7.210;2023-07-31T02:25:59;23.45;;;7.70;;
22439;SDS011;11387;51.612;7.210;2023-07-31T02:28:29;23.15;;;8.00;;
22439;SDS011;11387;51.612;7.210;2023-07-31T02:30:58;26.23;;;7.00;;
22439;SDS011;11387;51.612;7.210;2023-07-31T02:33:28;25.67;;;8.13;;
22439;SDS011;11387;51.612;7.210;2023-07-31T02:35:57;21.65;;;7.28;;
22439;SDS011;11387;51.612;7.210;2023-07-31T02:38:25;28.20;;;7.88;;
22439;SDS011;11387;51.612;7.210;2023-07-31T02:40:54;25.70;;;7.90;;
22439;SDS011;11387;51.612;7.210;2023-07-31T02:43:23;26.95;;;7.97;;
22439;SDS011;11387;51.612;7.210;2023-07-31T02:45:52;35.60;;;8.70;;
22439;SDS011;11387;51.612;7.210;2023-07-31T02:48:20;20.67;;;7.53;;
22439;SDS011;11387;51.612;7.210;2023-07-31T02:50:50;26.30;;;7.95;;
22439;SDS011;11387;51.612;7.210;2023-07-31T02:53:19;29.88;;;8.07;;
22439;SDS011;11387;51.612;7.210;2023-07-31T02:55:47;24.52;;;7.30;;
22439;SDS011;11387;51.612;7.210;2023-07-31T02:58:16;29.20;;;7.72;;
22439;SDS011;11387;51.612;7.210;2023-07-31T03:00:45;24.50;;;7.68;;
22439;SDS011;11387;51.612;7.210;2023-07-31T03:03:13;27.48;;;8.05;;
22439;SDS011;11387;51.612;7.210;2023-07-31T03:05:42;25.35;;;8.38;;
22439;SDS011;11387;51.612;7.210;2023-07-31T03:08:12;25.83;;;6.60;;
22439;SDS011;11387;51.612;7.210;2023-07-31T03:10:41;24.58;;;7.95;;
22439;SDS011;11387;51.612;7.210;2023-07-31T03:13:30;20.75;;;7.90;;
22439;SDS011;11387;51.612;7.210;2023-07-31T03:15:58;23.45;;;7.03;;
22439;SDS011;11387;51.612;7.210;2023-07-31T03:18:27;21.65;;;6.88;;
22439;SDS011;11387;51.612;7.210;2023-07-31T03:20:55;27.77;;;7.72;;
22439;SDS011;11387;51.612;7.210;2023-07-31T03:23:25;22.13;;;7.75;;
22439;SDS011;11387;51.612;7.210;2023-07-31T03:25:57;26.27;;;7.25;;
22439;SDS011;11387;51.612;7.210;2023-07-31T03:28:26;23.15;;;7.45;;
22439;SDS011;11387;51.612;7.210;2023-07-31T03:30:55;17.92;;;7.45;;
22439;SDS011;11387;51.612;7.210;2023-07-31T03:33:24;19.60;;;6.55;;
22439;SDS011;11387;51.612;7.210;2023-07-31T03:35:53;21.02;;;7.15;;
22439;SDS011;11387;51.612;7.210;2023-07-31T03:38:21;20.13;;;6.32;;
22439;SDS011;11387;51.612;7.210;2023-07-31T03:40:51;25.48;;;6.90;;
22439;SDS011;11387;51.612;7.210;2023-07-31T03:43:20;24.10;;;8.00;;
22439;SDS011;11387;51.612;7.210;2023-07-31T03:45:48;20.20;;;6.15;;
22439;SDS011;11387;51.612;7.210;2023-07-31T03:48:17;20.33;;;7.13;;
22439;SDS011;11387;51.612;7.210;2023-07-31T03:50:46;25.15;;;6.70;;
22439;SDS011;11387;51.612;7.210;2023-07-31T03:53:14;29.48;;;7.07;;
22439;SDS011;11387;51.612;7.210;2023-07-31T03:55:43;18.65;;;6.68;;
22439;SDS011;11387;51.612;7.210;2023-07-31T03:58:13;21.73;;;7.95;;
22439;SDS011;11387;51.612;7.210;2023-07-31T04:00:41;26.50;;;7.45;;
22439;SDS011;11387;51.612;7.210;2023-07-31T04:03:10;21.17;;;6.18;;
22439;SDS011;11387;51.612;7.210;2023-07-31T04:05:39;22.05;;;6.40;;
22439;SDS011;11387;51.612;7.210;2023-07-31T04:08:07;22.88;;;7.32;;
22439;SDS011;11387;51.612;7.210;2023-07-31T04:10:36;17.98;;;6.43;;
22439;SDS011;11387;51.612;7.210;2023-07-31T04:13:05;20.33;;;7.13;;
22439;SDS011;11387;51.612;7.210;2023-07-31T04:15:35;25.77;;;6.28;;
22439;SDS011;11387;51.612;7.210;2023-07-31T04:18:04;23.85;;;6.95;;
22439;SDS011;11387;51.612;7.210;2023-07-31T04:20:33;20.70;;;7.20;;
22439;SDS011;11387;51.612;7.210;2023-07-31T04:23:01;28.58;;;6.45;;
22439;SDS011;11387;51.612;7.210;2023-07-31T04:25:30;15.18;;;6.50;;
22439;SDS011;11387;51.612;7.210;2023-07-31T04:27:58;23.88;;;6.35;;
22439;SDS011;11387;51.612;7.210;2023-07-31T04:30:27;17.75;;;6.00;;
22439;SDS011;11387;51.612;7.210;2023-07-31T04:32:57;23.35;;;7.07;;
22439;SDS011;11387;51.612;7.210;2023-07-31T04:35:27;20.17;;;6.32;;
22439;SDS011;11387;51.612;7.210;2023-07-31T04:37:56;24.48;;;6.95;;
22439;SDS011;11387;51.612;7.210;2023-07-31T04:40:24;18.23;;;5.78;;
22439;SDS011;11387;51.612;7.210;2023-07-31T04:42:53;19.10;;;6.25;;
22439;SDS011;11387;51.612;7.210;2023-07-31T04:45:21;19.92;;;6.03;;
22439;SDS011;11387;51.612;7.210;2023-07-31T04:47:50;18.48;;;7.05;;
22439;SDS011;11387;51.612;7.210;2023-07-31T04:50:20;12.93;;;5.78;;
22439;SDS011;11387;51.612;7.210;2023-07-31T04:52:49;14.70;;;5.82;;
22439;SDS011;11387;51.612;7.210;2023-07-31T04:55:17;16.20;;;5.30;;
22439;SDS011;11387;51.612;7.210;2023-07-31T04:57:46;19.58;;;5.88;;
22439;SDS011;11387;51.612;7.210;2023-07-31T05:00:15;16.42;;;5.57;;
22439;SDS011;11387;51.612;7.210;2023-07-31T05:02:44;21.80;;;6.70;;
22439;SDS011;11387;51.612;7.210;2023-07-31T05:05:13;13.07;;;5.32;;
22439;SDS011;11387;51.612;7.210;2023-07-31T05:07:43;21.83;;;6.88;;
22439;SDS011;11387;51.612;7.210;2023-07-31T05:10:12;17.88;;;7.00;;
22439;SDS011;11387;51.612;7.210;2023-07-31T05:12:41;15.15;;;5.53;;
22439;SDS011;11387;51.612;7.210;2023-07-31T05:15:10;15.93;;;6.28;;
22439;SDS011;11387;51.612;7.210;2023-07-31T05:17:38;23.02;;;9.60;;
22439;SDS011;11387;51.612;7.210;2023-07-31T05:20:08;17.67;;;7.28;;
22439;SDS011;11387;51.612;7.210;2023-07-31T05:22:37;18.60;;;7.43;;
22439;SDS011;11387;51.612;7.210;2023-07-31T05:25:08;16.65;;;6.57;;
22439;SDS011;11387;51.612;7.210;2023-07-31T05:27:37;24.65;;;7.05;;
22439;SDS011;11387;51.612;7.210;2023-07-31T05:30:06;16.52;;;6.70;;
22439;SDS011;11387;51.612;7.210;2023-07-31T05:32:35;17.33;;;7.13;;
22439;SDS011;11387;51.612;7.210;2023-07-31T05:35:04;20.10;;;7.07;;
22439;SDS011;11387;51.612;7.210;2023-07-31T05:37:33;22.10;;;6.68;;
22439;SDS011;11387;51.612;7.210;2023-07-31T05:40:02;19.75;;;6.05;;
22439;SDS011;11387;51.612;7.210;2023-07-31T05:42:32;14.25;;;6.28;;
22439;SDS011;11387;51.612;7.210;2023-07-31T05:45:02;13.48;;;5.07;;
22439;SDS011;11387;51.612;7.210;2023-07-31T05:47:31;16.65;;;5.30;;
22439;SDS011;11387;51.612;7.210;2023-07-31T05:49:59;19.48;;;6.47;;
22439;SDS011;11387;51.612;7.210;2023-07-31T05:52:28;19.33;;;7.15;;
22439;SDS011;11387;51.612;7.210;2023-07-31T05:54:57;15.48;;;7.22;;
22439;SDS011;11387;51.612;7.210;2023-07-31T05:57:25;11.98;;;7.03;;
22439;SDS011;11387;51.612;7.210;2023-07-31T05:59:55;14.93;;;7.13;;
22439;SDS011;11387;51.612;7.210;2023-07-31T06:02:24;16.65;;;6.75;;
22439;SDS011;11387;51.612;7.210;2023-07-31T06:04:53;20.55;;;8.40;;
22439;SDS011;11387;51.612;7.210;2023-07-31T06:07:21;14.30;;;7.95;;
22439;SDS011;11387;51.612;7.210;2023-07-31T06:09:50;22.52;;;8.93;;
22439;SDS011;11387;51.612;7.210;2023-07-31T06:12:19;21.52;;;9.10;;
22439;SDS011;11387;51.612;7.210;2023-07-31T06:14:47;19.30;;;8.63;;
22439;SDS011;11387;51.612;7.210;2023-07-31T06:17:17;21.98;;;10.45;;
22439;SDS011;11387;51.612;7.210;2023-07-31T06:19:46;20.88;;;9.35;;
22439;SDS011;11387;51.612;7.210;2023-07-31T06:22:14;17.45;;;8.98;;
22439;SDS011;11387;51.612;7.210;2023-07-31T06:24:43;19.75;;;9.98;;
22439;SDS011;11387;51.612;7.210;2023-07-31T06:27:12;18.98;;;9.05;;
22439;SDS011;11387;51.612;7.210;2023-07-31T06:29:40;22.75;;;10.48;;
22439;SDS011;11387;51.612;7.210;2023-07-31T06:32:10;19.33;;;9.82;;
22439;SDS011;11387;51.612;7.210;2023-07-31T06:34:40;20.92;;;10.07;;
22439;SDS011;11387;51.612;7.210;2023-07-31T06:37:09;20.98;;;10.75;;
22439;SDS011;11387;51.612;7.210;2023-07-31T06:39:38;26.48;;;11.20;;
22439;SDS011;11387;51.612;7.210;2023-07-31T06:42:06;21.70;;;10.52;;
22439;SDS011;11387;51.612;7.210;2023-07-31T06:44:35;32.35;;;11.65;;
22439;SDS011;11387;51.612;7.210;2023-07-31T06:47:04;27.48;;;12.32;;
22439;SDS011;11387;51.612;7.210;2023-07-31T06:49:35;24.20;;;11.48;;
22439;SDS011;11387;51.612;7.210;2023-07-31T06:52:06;26.58;;;10.77;;
22439;SDS011;11387;51.612;7.210;2023-07-31T06:54:35;22.88;;;11.90;;
22439;SDS011;11387;51.612;7.210;2023-07-31T06:57:04;29.52;;;10.82;;
22439;SDS011;11387;51.612;7.210;2023-07-31T06:59:32;19.90;;;10.00;;
22439;SDS011;11387;51.612;7.210;2023-07-31T07:02:15;23.10;;;11.63;;
22439;SDS011;11387;51.612;7.210;2023-07-31T07:04:44;24.50;;;10.48;;
22439;SDS011;11387;51.612;7.210;2023-07-31T07:07:14;24.70;;;10.57;;
22439;SDS011;11387;51.612;7.210;2023-07-31T07:09:43;23.25;;;10.43;;
22439;SDS011;11387;51.612;7.210;2023-07-31T07:12:11;25.92;;;10.27;;
22439;SDS011;11387;51.612;7.210;2023-07-31T07:14:40;19.25;;;9.95;;
22439;SDS011;11387;51.612;7.210;2023-07-31T07:17:09;26.88;;;10.40;;
22439;SDS011;11387;51.612;7.210;2023-07-31T07:19:40;21.65;;;9.68;;
22439;SDS011;11387;51.612;7.210;2023-07-31T07:22:09;18.00;;;9.65;;
22439;SDS011;11387;51.612;7.210;2023-07-31T07:24:39;18.02;;;8.98;;
22439;SDS011;11387;51.612;7.210;2023-07-31T07:27:08;15.90;;;8.07;;
22439;SDS011;11387;51.612;7.210;2023-07-31T07:29:37;19.55;;;8.77;;
22439;SDS011;11387;51.612;7.210;2023-07-31T07:32:06;16.15;;;9.10;;
22439;SDS011;11387;51.612;7.210;2023-07-31T07:34:35;15.45;;;7.70;;
22439;SDS011;11387;51.612;7.210;2023-07-31T07:37:04;14.25;;;8.10;;
22439;SDS011;11387;51.612;7.210;2023-07-31T07:39:33;15.70;;;7.95;;
22439;SDS011;11387;51.612;7.210;2023-07-31T07:42:03;15.13;;;8.23;;
22439;SDS011;11387;51.612;7.210;2023-07-31T07:44:32;13.48;;;7.88;;
22439;SDS011;11387;51.612;7.210;2023-07-31T07:47:01;14.02;;;7.95;;
22439;SDS011;11387;51.612;7.210;2023-07-31T07:49:30;14.82;;;8.50;;
22439;SDS011;11387;51.612;7.210;2023-07-31T07:51:59;17.25;;;8.65;;
22439;SDS011;11387;51.612;7.210;2023-07-31T07:54:28;19.75;;;8.35;;
22439;SDS011;11387;51.612;7.210;2023-07-31T07:56:57;19.02;;;9.02;;
22439;SDS011;11387;51.612;7.210;2023-07-31T07:59:27;15.68;;;7.53;;
22439;SDS011;11387;51.612;7.210;2023-07-31T08:01:56;15.10;;;7.25;;
22439;SDS011;11387;51.612;7.210;2023-07-31T08:04:24;14.05;;;7.57;;
22439;SDS011;11387;51.612;7.210;2023-07-31T08:06:53;16.48;;;8.07;;
22439;SDS011;11387;51.612;7.210;2023-07-31T08:09:22;16.92;;;7.43;;
22439;SDS011;11387;51.612;7.210;2023-07-31T08:11:50;14.05;;;7.28;;
22439;SDS011;11387;51.612;7.210;2023-07-31T08:14:19;16.17;;;7.00;;
22439;SDS011;11387;51.612;7.210;2023-07-31T08:16:49;9.70;;;6.35;;
22439;SDS011;11387;51.612;7.210;2023-07-31T08:19:17;16.05;;;7.18;;
22439;SDS011;11387;51.612;7.210;2023-07-31T08:21:46;13.23;;;6.43;;
22439;SDS011;11387;51.612;7.210;2023-07-31T08:24:15;11.80;;;5.85;;
22439;SDS011;11387;51.612;7.210;2023-07-31T08:26:44;10.93;;;6.38;;
22439;SDS011;11387;51.612;7.210;2023-07-31T08:29:12;12.63;;;5.82;;
22439;SDS011;11387;51.612;7.210;2023-07-31T08:31:41;15.25;;;6.03;;
22439;SDS011;11387;51.612;7.210;2023-07-31T08:34:11;11.00;;;6.15;;
22439;SDS011;11387;51.612;7.210;2023-07-31T08:36:40;7.78;;;3.92;;
22439;SDS011;11387;51.612;7.210;2023-07-31T08:39:09;8.98;;;5.03;;
22439;SDS011;11387;51.612;7.210;2023-07-31T08:41:40;8.82;;;3.90;;
22439;SDS011;11387;51.612;7.210;2023-07-31T08:44:09;7.28;;;3.70;;
22439;SDS011;11387;51.612;7.210;2023-07-31T08:46:39;9.90;;;4.30;;
22439;SDS011;11387;51.612;7.210;2023-07-31T08:49:09;8.98;;;4.38;;
22439;SDS011;11387;51.612;7.210;2023-07-31T08:51:40;8.00;;;4.50;;
22439;SDS011;11387;51.612;7.210;2023-07-31T08:54:10;10.43;;;4.05;;
22439;SDS011;11387;51.612;7.210;2023-07-31T08:56:39;12.13;;;4.43;;
22439;SDS011;11387;51.612;7.210;2023-07-31T08:59:08;10.73;;;4.30;;
22439;SDS011;11387;51.612;7.210;2023-07-31T09:01:42;10.40;;;4.95;;
22439;SDS011;11387;51.612;7.210;2023-07-31T09:04:17;9.90;;;5.63;;
22439;SDS011;11387;51.612;7.210;2023-07-31T09:06:49;9.77;;;4.90;;
22439;SDS011;11387;51.612;7.210;2023-07-31T09:09:21;9.98;;;4.95;;
22439;SDS011;11387;51.612;7.210;2023-07-31T09:11:50;8.93;;;5.15;;
22439;SDS011;11387;51.612;7.210;2023-07-31T09:14:20;11.60;;;5.03;;
22439;SDS011;11387;51.612;7.210;2023-07-31T09:16:53;9.20;;;5.30;;
22439;SDS011;11387;51.612;7.210;2023-07-31T09:19:29;9.95;;;5.32;;
22439;SDS011;11387;51.612;7.210;2023-07-31T09:22:01;11.10;;;4.68;;
22439;SDS011;11387;51.612;7.210;2023-07-31T09:24:31;9.90;;;5.32;;
22439;SDS011;11387;51.612;7.210;2023-07-31T09:27:01;11.40;;;4.80;;
22439;SDS011;11387;51.612;7.210;2023-07-31T09:29:30;9.25;;;4.82;;
22439;SDS011;11387;51.612;7.210;2023-07-31T09:31:59;11.77;;;4.28;;
22439;SDS011;11387;51.612;7.210;2023-07-31T09:34:31;7.90;;;3.40;;
22439;SDS011;11387;51.612;7.210;2023-07-31T09:37:05;9.90;;;4.25;;
22439;SDS011;11387;51.612;7.210;2023-07-31T09:39:44;9.05;;;5.18;;
22439;SDS011;11387;51.612;7.210;2023-07-31T09:42:14;8.90;;;4.40;;
22439;SDS011;11387;51.612;7.210;2023-07-31T09:44:53;10.60;;;4.05;;
22439;SDS011;11387;51.612;7.210;2023-07-31T09:47:25;12.07;;;4.88;;
22439;SDS011;11387;51.612;7.210;2023-07-31T09:49:55;8.52;;;4.40;;
22439;SDS011;11387;51.612;7.210;2023-07-31T09:52:25;10.88;;;4.03;;
22439;SDS011;11387;51.612;7.210;2023-07-31T09:54:54;10.13;;;4.53;;
22439;SDS011;11387;51.612;7.210;2023-07-31T09:57:23;8.93;;;4.63;;
22439;SDS011;11387;51.612;7.210;2023-07-31T10:00:07;14.73;;;9.32;;
22439;SDS011;11387;51.612;7.210;2023-07-31T10:02:38;10.48;;;4.22;;
22439;SDS011;11387;51.612;7.210;2023-07-31T10:05:09;7.75;;;4.68;;
22439;SDS011;11387;51.612;7.210;2023-07-31T10:07:41;10.55;;;3.95;;
22439;SDS011;11387;51.612;7.210;2023-07-31T10:10:25;7.07;;;4.22;;
22439;SDS011;11387;51.612;7.210;2023-07-31T10:12:56;6.70;;;3.13;;
22439;SDS011;11387;51.612;7.210;2023-07-31T10:15:25;7.20;;;4.28;;
22439;SDS011;11387;51.612;7.210;2023-07-31T10:17:54;8.30;;;3.17;;
22439;SDS011;11387;51.612;7.210;2023-07-31T10:20:25;8.13;;;3.78;;
22439;SDS011;11387;51.612;7.210;2023-07-31T10:22:55;10.30;;;4.80;;
22439;SDS011;11387;51.612;7.210;2023-07-31T10:25:27;7.78;;;4.55;;
22439;SDS011;11387;51.612;7.210;2023-07-31T10:27:56;6.63;;;3.97;;
22439;SDS011;11387;51.612;7.210;2023-07-31T10:30:27;9.48;;;4.50;;
22439;SDS011;11387;51.612;7.210;2023-07-31T10:32:57;6.10;;;3.75;;
22439;SDS011;11387;51.612;7.210;2023-07-31T10:35:28;7.20;;;4.05;;
22439;SDS011;11387;51.612;7.210;2023-07-31T10:38:23;6.55;;;3.30;;
22439;SDS011;11387;51.612;7.210;2023-07-31T10:41:12;5.93;;;3.22;;
22439;SDS011;11387;51.612;7.210;2023-07-31T10:43:40;7.07;;;3.45;;
22439;SDS011;11387;51.612;7.210;2023-07-31T10:46:10;6.43;;;3.75;;
22439;SDS011;11387;51.612;7.210;2023-07-31T10:48:41;8.32;;;4.13;;
22439;SDS011;11387;51.612;7.210;2023-07-31T10:51:12;6.60;;;4.22;;
22439;SDS011;11387;51.612;7.210;2023-07-31T10:53:42;8.40;;;5.03;;
22439;SDS011;11387;51.612;7.210;2023-07-31T10:56:11;8.25;;;5.32;;
22439;SDS011;11387;51.612;7.210;2023-07-31T10:58:43;11.80;;;6.68;;
22439;SDS011;11387;51.612;7.210;2023-07-31T11:01:13;12.13;;;7.32;;
22439;SDS011;11387;51.612;7.210;2023-07-31T11:03:42;10.88;;;7.25;;
22439;SDS011;11387;51.612;7.210;2023-07-31T11:06:13;12.70;;;8.20;;
22439;SDS011;11387;51.612;7.210;2023-07-31T11:08:46;14.98;;;9.05;;
22439;SDS011;11387;51.612;7.210;2023-07-31T11:11:16;17.48;;;9.95;;
22439;SDS011;11387;51.612;7.210;2023-07-31T11:13:46;19.73;;;11.23;;
22439;SDS011;11387;51.612;7.210;2023-07-31T11:16:18;18.20;;;10.93;;
22439;SDS011;11387;51.612;7.210;2023-07-31T11:18:48;18.13;;;11.32;;
22439;SDS011;11387;51.612;7.210;2023-07-31T11:21:20;17.77;;;11.43;;
22439;SDS011;11387;51.612;7.210;2023-07-31T11:23:51;18.55;;;10.10;;
22439;SDS011;11387;51.612;7.210;2023-07-31T11:26:22;16.02;;;10.73;;
22439;SDS011;11387;51.612;7.210;2023-07-31T11:28:52;16.92;;;11.80;;
22439;SDS011;11387;51.612;7.210;2023-07-31T11:31:20;12.52;;;9.85;;
22439;SDS011;11387;51.612;7.210;2023-07-31T11:33:49;15.05;;;9.93;;
22439;SDS011;11387;51.612;7.210;2023-07-31T11:36:20;15.45;;;9.38;;
22439;SDS011;11387;51.612;7.210;2023-07-31T11:38:49;15.43;;;9.70;;
22439;SDS011;11387;51.612;7.210;2023-07-31T11:41:18;14.55;;;10.10;;
22439;SDS011;11387;51.612;7.210;2023-07-31T11:43:47;12.57;;;9.20;;
22439;SDS011;11387;51.612;7.210;2023-07-31T11:46:15;13.32;;;8.68;;
22439;SDS011;11387;51.612;7.210;2023-07-31T11:48:46;12.98;;;8.75;;
22439;SDS011;11387;51.612;7.210;2023-07-31T11:51:16;15.45;;;8.13;;
22439;SDS011;11387;51.612;7.210;2023-07-31T11:53:47;10.02;;;7.35;;
22439;SDS011;11387;51.612;7.210;2023-07-31T11:56:19;78.20;;;46.58;;
22439;SDS011;11387;51.612;7.210;2023-07-31T11:58:50;14.02;;;7.53;;
22439;SDS011;11387;51.612;7.210;2023-07-31T12:01:21;11.35;;;7.53;;
22439;SDS011;11387;51.612;7.210;2023-07-31T12:03:51;13.15;;;9.13;;
22439;SDS011;11387;51.612;7.210;2023-07-31T12:06:20;14.73;;;7.50;;
22439;SDS011;11387;51.612;7.210;2023-07-31T12:08:50;17.60;;;7.88;;
22439;SDS011;11387;51.612;7.210;2023-07-31T12:11:19;11.02;;;6.72;;
22439;SDS011;11387;51.612;7.210;2023-07-31T12:13:48;9.60;;;6.35;;
22439;SDS011;11387;51.612;7.210;2023-07-31T12:16:16;12.63;;;6.68;;
22439;SDS011;11387;51.612;7.210;2023-07-31T12:18:45;17.20;;;7.03;;
22439;SDS011;11387;51.612;7.210;2023-07-31T12:21:23;11.65;;;7.10;;
22439;SDS011;11387;51.612;7.210;2023-07-31T12:23:57;8.20;;;5.20;;
22439;SDS011;11387;51.612;7.210;2023-07-31T12:26:33;11.02;;;6.72;;
22439;SDS011;11387;51.612;7.210;2023-07-31T12:29:05;9.52;;;6.43;;
22439;SDS011;11387;51.612;7.210;2023-07-31T12:31:35;9.20;;;6.22;;
22439;SDS011;11387;51.612;7.210;2023-07-31T12:34:14;7.93;;;5.78;;
22439;SDS011;11387;51.612;7.210;2023-07-31T12:36:44;11.20;;;6.47;;
22439;SDS011;11387;51.612;7.210;2023-07-31T12:39:14;13.73;;;8.13;;
22439;SDS011;11387;51.612;7.210;2023-07-31T12:41:43;11.15;;;6.47;;
22439;SDS011;11387;51.612;7.210;2023-07-31T12:44:11;10.85;;;6.68;;
22439;SDS011;11387;51.612;7.210;2023-07-31T12:46:40;10.52;;;6.35;;
22439;SDS011;11387;51.612;7.210;2023-07-31T12:49:09;13.05;;;7.93;;
22439;SDS011;11387;51.612;7.210;2023-07-31T12:51:39;12.65;;;7.13;;
22439;SDS011;11387;51.612;7.210;2023-07-31T12:54:08;10.35;;;7.30;;
22439;SDS011;11387;51.612;7.210;2023-07-31T12:56:38;9.57;;;7.15;;
22439;SDS011;11387;51.612;7.210;2023-07-31T12:59:08;9.93;;;6.75;;
22439;SDS011;11387;51.612;7.210;2023-07-31T13:01:37;13.43;;;7.53;;
22439;SDS011;11387;51.612;7.210;2023-07-31T13:04:06;9.88;;;7.30;;
22439;SDS011;11387;51.612;7.210;2023-07-31T13:06:35;10.65;;;7.15;;
22439;SDS011;11387;51.612;7.210;2023-07-31T13:09:04;9.95;;;7.25;;
22439;SDS011;11387;51.612;7.210;2023-07-31T13:11:33;11.48;;;7.38;;
22439;SDS011;11387;51.612;7.210;2023-07-31T13:14:03;11.65;;;7.30;;
22439;SDS011;11387;51.612;7.210;2023-07-31T13:16:32;8.10;;;5.57;;
22439;SDS011;11387;51.612;7.210;2023-07-31T13:19:01;15.18;;;5.53;;
22439;SDS011;11387;51.612;7.210;2023-07-31T13:21:29;10.32;;;6.25;;
22439;SDS011;11387;51.612;7.210;2023-07-31T13:23:58;9.35;;;6.40;;
22439;SDS011;11387;51.612;7.210;2023-07-31T13:26:27;8.65;;;4.90;;
22439;SDS011;11387;51.612;7.210;2023-07-31T13:28:56;8.68;;;5.00;;
22439;SDS011;11387;51.612;7.210;2023-07-31T13:31:26;10.88;;;5.32;;
22439;SDS011;11387;51.612;7.210;2023-07-31T13:33:55;8.82;;;5.10;;
22439;SDS011;11387;51.612;7.210;2023-07-31T13:36:24;7.40;;;4.53;;
22439;SDS011;11387;51.612;7.210;2023-07-31T13:39:07;8.50;;;4.53;;
22439;SDS011;11387;51.612;7.210;2023-07-31T13:41:36;9.02;;;4.70;;
22439;SDS011;11387;51.612;7.210;2023-07-31T13:44:32;6.95;;;4.88;;
22439;SDS011;11387;51.612;7.210;2023-07-31T13:47:02;9.52;;;5.78;;
22439;SDS011;11387;51.612;7.210;2023-07-31T13:49:32;8.18;;;4.72;;
22439;SDS011;11387;51.612;7.210;2023-07-31T13:52:01;7.05;;;5.30;;
22439;SDS011;11387;51.612;7.210;2023-07-31T13:54:30;7.18;;;4.82;;
22439;SDS011;11387;51.612;7.210;2023-07-31T13:56:59;9.48;;;5.38;;
22439;SDS011;11387;51.612;7.210;2023-07-31T13:59:34;8.95;;;4.90;;
22439;SDS011;11387;51.612;7.210;2023-07-31T14:02:04;6.55;;;4.15;;
22439;SDS011;11387;51.612;7.210;2023-07-31T14:04:34;5.68;;;3.95;;
22439;SDS011;11387;51.612;7.210;2023-07-31T14:07:03;4.85;;;3.72;;
22439;SDS011;11387;51.612;7.210;2023-07-31T14:09:32;8.90;;;3.85;;
22439;SDS011;11387;51.612;7.210;2023-07-31T14:12:01;5.55;;;3.72;;
22439;SDS011;11387;51.612;7.210;2023-07-31T14:14:29;5.78;;;4.03;;
22439;SDS011;11387;51.612;7.210;2023-07-31T14:17:01;7.05;;;3.47;;
22439;SDS011;11387;51.612;7.210;2023-07-31T14:19:32;7.72;;;3.90;;
22439;SDS011;11387;51.612;7.210;2023-07-31T14:22:00;6.65;;;3.45;;
22439;SDS011;11387;51.612;7.210;2023-07-31T14:24:37;10.23;;;4.75;;
22439;SDS011;11387;51.612;7.210;2023-07-31T14:27:06;10.35;;;3.63;;
22439;SDS011;11387;51.612;7.210;2023-07-31T14:29:36;8.38;;;4.35;;
22439;SDS011;11387;51.612;7.210;2023-07-31T14:32:05;8.10;;;3.85;;
22439;SDS011;11387;51.612;7.210;2023-07-31T14:34:36;6.32;;;4.03;;
22439;SDS011;11387;51.612;7.210;2023-07-31T14:37:04;5.78;;;3.75;;
22439;SDS011;11387;51.612;7.210;2023-07-31T14:39:33;7.72;;;4.10;;
22439;SDS011;11387;51.612;7.210;2023-07-31T14:42:05;8.68;;;3.75;;
22439;SDS011;11387;51.612;7.210;2023-07-31T14:44:34;7.47;;;4.18;;
22439;SDS011;11387;51.612;7.210;2023-07-31T14:47:03;9.02;;;4.38;;
22439;SDS011;11387;51.612;7.210;2023-07-31T14:49:32;6.60;;;4.10;;
22439;SDS011;11387;51.612;7.210;2023-07-31T14:52:02;9.30;;;4.68;;